sensor_id;sensor_type;location;lat;lon;timestamp;P1;durP1;ratioP1;P2;durP2;ratioP2
8488;SDS011;4281;45.772;12.852;2024-02-21T00:00:04;9.17;;;8.23;;
8488;SDS011;4281;45.772;12.852;2024-02-21T00:02:33;9.10;;;8.20;;
8488;SDS011;4281;45.772;12.852;2024-02-21T00:05:01;9.90;;;8.87;;
8488;SDS011;4281;45.772;12.852;2024-02-21T00:07:29;9.87;;;8.97;;
8488;SDS011;4281;45.772;12.852;2024-02-21T00:09:57;11.10;;;10.00;;
8488;SDS011;4281;45.772;12.852;2024-02-21T00:12:25;9.63;;;8.73;;
8488;SDS011;4281;45.772;12.852;2024-02-21T00:14:54;9.60;;;8.60;;
8488;SDS011;4281;45.772;12.852;2024-02-21T00:17:22;9.70;;;8.77;;
8488;SDS011;4281;45.772;12.852;2024-02-21T00:19:50;9.63;;;8.73;;
8488;SDS011;4281;45.772;12.852;2024-02-21T00:22:17;9.07;;;8.23;;
8488;SDS011;4281;45.772;12.852;2024-02-21T00:24:45;9.10;;;8.30;;
8488;SDS011;4281;45.772;12.852;2024-02-21T00:27:13;9.27;;;8.33;;
8488;SDS011;4281;45.772;12.852;2024-02-21T00:29:41;9.47;;;8.57;;
8488;SDS011;4281;45.772;12.852;2024-02-21T00:32:10;8.77;;;7.87;;
8488;SDS011;4281;45.772;12.852;2024-02-21T00:34:38;8.73;;;7.83;;
8488;SDS011;4281;45.772;12.852;2024-02-21T00:37:06;9.50;;;7.80;;
8488;SDS011;4281;45.772;12.852;2024-02-21T00:39:34;7.77;;;6.97;;
8488;SDS011;4281;45.772;12.852;2024-02-21T00:42:03;8.93;;;8.03;;
8488;SDS011;4281;45.772;12.852;2024-02-21T00:44:33;10.23;;;8.00;;
8488;SDS011;4281;45.772;12.852;2024-02-21T00:47:01;8.63;;;7.83;;
8488;SDS011;4281;45.772;12.852;2024-02-21T00:49:30;9.00;;;8.10;;
8488;SDS011;4281;45.772;12.852;2024-02-21T00:51:59;9.00;;;8.10;;
8488;SDS011;4281;45.772;12.852;2024-02-21T00:54:26;8.30;;;7.50;;
8488;SDS011;4281;45.772;12.852;2024-02-21T00:57:09;9.27;;;7.57;;
8488;SDS011;4281;45.772;12.852;2024-02-21T00:59:37;7.43;;;6.73;;
8488;SDS011;4281;45.772;12.852;2024-02-21T01:02:05;7.50;;;6.70;;
8488;SDS011;4281;45.772;12.852;2024-02-21T01:04:34;8.17;;;7.37;;
8488;SDS011;4281;45.772;12.852;2024-02-21T01:07:03;7.07;;;6.37;;
8488;SDS011;4281;45.772;12.852;2024-02-21T01:09:31;7.73;;;7.03;;
8488;SDS011;4281;45.772;12.852;2024-02-21T01:11:59;7.20;;;6.47;;
8488;SDS011;4281;45.772;12.852;2024-02-21T01:14:27;7.17;;;6.47;;
8488;SDS011;4281;45.772;12.852;2024-02-21T01:16:55;7.53;;;6.80;;
8488;SDS011;4281;45.772;12.852;2024-02-21T01:19:23;7.47;;;6.77;;
8488;SDS011;4281;45.772;12.852;2024-02-21T01:21:52;8.23;;;7.47;;
8488;SDS011;4281;45.772;12.852;2024-02-21T01:24:20;8.77;;;7.97;;
8488;SDS011;4281;45.772;12.852;2024-02-21T01:26:48;7.50;;;6.67;;
8488;SDS011;4281;45.772;12.852;2024-02-21T01:29:16;7.73;;;7.03;;
8488;SDS011;4281;45.772;12.852;2024-02-21T01:31:44;7.30;;;6.53;;
8488;SDS011;4281;45.772;12.852;2024-02-21T01:34:13;7.00;;;6.30;;
8488;SDS011;4281;45.772;12.852;2024-02-21T01:36:41;6.70;;;6.00;;
8488;SDS011;4281;45.772;12.852;2024-02-21T01:39:10;6.17;;;5.57;;
8488;SDS011;4281;45.772;12.852;2024-02-21T01:41:38;6.40;;;5.80;;
8488;SDS011;4281;45.772;12.852;2024-02-21T01:44:06;6.10;;;5.50;;
8488;SDS011;4281;45.772;12.852;2024-02-21T01:46:34;6.07;;;5.57;;
8488;SDS011;4281;45.772;12.852;2024-02-21T01:49:02;6.07;;;5.53;;
8488;SDS011;4281;45.772;12.852;2024-02-21T01:51:31;5.40;;;4.90;;
8488;SDS011;4281;45.772;12.852;2024-02-21T01:53:59;7.27;;;5.53;;
8488;SDS011;4281;45.772;12.852;2024-02-21T01:56:28;6.60;;;5.00;;
8488;SDS011;4281;45.772;12.852;2024-02-21T01:58:56;5.40;;;4.90;;
8488;SDS011;4281;45.772;12.852;2024-02-21T02:01:24;5.20;;;4.70;;
8488;SDS011;4281;45.772;12.852;2024-02-21T02:03:52;4.90;;;4.47;;
8488;SDS011;4281;45.772;12.852;2024-02-21T02:06:21;5.07;;;4.57;;
8488;SDS011;4281;45.772;12.852;2024-02-21T02:08:49;5.50;;;4.30;;
8488;SDS011;4281;45.772;12.852;2024-02-21T02:11:17;5.00;;;4.53;;
8488;SDS011;4281;45.772;12.852;2024-02-21T02:13:47;4.23;;;3.87;;
8488;SDS011;4281;45.772;12.852;2024-02-21T02:16:14;4.57;;;3.70;;
8488;SDS011;4281;45.772;12.852;2024-02-21T02:18:42;5.37;;;4.13;;
8488;SDS011;4281;45.772;12.852;2024-02-21T02:21:13;3.77;;;3.47;;
8488;SDS011;4281;45.772;12.852;2024-02-21T02:23:44;4.50;;;4.10;;
8488;SDS011;4281;45.772;12.852;2024-02-21T02:26:12;4.50;;;3.93;;
8488;SDS011;4281;45.772;12.852;2024-02-21T02:28:40;4.47;;;3.80;;
8488;SDS011;4281;45.772;12.852;2024-02-21T02:31:07;4.20;;;3.80;;
8488;SDS011;4281;45.772;12.852;2024-02-21T02:33:35;3.97;;;3.57;;
8488;SDS011;4281;45.772;12.852;2024-02-21T02:36:04;4.03;;;3.63;;
8488;SDS011;4281;45.772;12.852;2024-02-21T02:38:32;4.07;;;3.67;;
8488;SDS011;4281;45.772;12.852;2024-02-21T02:41:02;4.77;;;3.40;;
8488;SDS011;4281;45.772;12.852;2024-02-21T02:43:29;4.60;;;3.80;;
8488;SDS011;4281;45.772;12.852;2024-02-21T02:45:57;4.20;;;3.57;;
8488;SDS011;4281;45.772;12.852;2024-02-21T02:48:25;3.80;;;3.40;;
8488;SDS011;4281;45.772;12.852;2024-02-21T02:50:53;3.73;;;3.43;;
8488;SDS011;4281;45.772;12.852;2024-02-21T02:53:21;3.57;;;3.27;;
8488;SDS011;4281;45.772;12.852;2024-02-21T02:55:49;3.50;;;3.20;;
8488;SDS011;4281;45.772;12.852;2024-02-21T02:58:18;3.83;;;3.50;;
8488;SDS011;4281;45.772;12.852;2024-02-21T03:00:46;4.00;;;3.60;;
8488;SDS011;4281;45.772;12.852;2024-02-21T03:03:14;3.20;;;2.90;;
8488;SDS011;4281;45.772;12.852;2024-02-21T03:05:42;3.57;;;3.27;;
8488;SDS011;4281;45.772;12.852;2024-02-21T03:08:10;3.33;;;2.97;;
8488;SDS011;4281;45.772;12.852;2024-02-21T03:10:38;3.47;;;2.90;;
8488;SDS011;4281;45.772;12.852;2024-02-21T03:13:06;3.63;;;2.80;;
8488;SDS011;4281;45.772;12.852;2024-02-21T03:15:35;2.90;;;2.70;;
8488;SDS011;4281;45.772;12.852;2024-02-21T03:18:03;3.40;;;3.00;;
8488;SDS011;4281;45.772;12.852;2024-02-21T03:20:32;3.10;;;2.80;;
8488;SDS011;4281;45.772;12.852;2024-02-21T03:23:00;3.27;;;2.97;;
8488;SDS011;4281;45.772;12.852;2024-02-21T03:25:27;3.00;;;2.57;;
8488;SDS011;4281;45.772;12.852;2024-02-21T03:27:55;3.20;;;2.77;;
8488;SDS011;4281;45.772;12.852;2024-02-21T03:30:23;2.93;;;2.70;;
8488;SDS011;4281;45.772;12.852;2024-02-21T03:32:52;2.77;;;2.37;;
8488;SDS011;4281;45.772;12.852;2024-02-21T03:35:20;2.93;;;2.60;;
8488;SDS011;4281;45.772;12.852;2024-02-21T03:37:52;3.03;;;2.60;;
8488;SDS011;4281;45.772;12.852;2024-02-21T03:40:21;3.57;;;2.67;;
8488;SDS011;4281;45.772;12.852;2024-02-21T03:42:49;3.27;;;2.73;;
8488;SDS011;4281;45.772;12.852;2024-02-21T03:45:16;2.50;;;2.20;;
8488;SDS011;4281;45.772;12.852;2024-02-21T03:47:44;2.57;;;2.37;;
8488;SDS011;4281;45.772;12.852;2024-02-21T03:50:14;2.50;;;2.30;;
8488;SDS011;4281;45.772;12.852;2024-02-21T03:52:42;2.30;;;2.10;;
8488;SDS011;4281;45.772;12.852;2024-02-21T03:55:10;2.17;;;1.80;;
8488;SDS011;4281;45.772;12.852;2024-02-21T03:57:38;2.47;;;2.27;;
8488;SDS011;4281;45.772;12.852;2024-02-21T04:00:06;2.37;;;2.00;;
8488;SDS011;4281;45.772;12.852;2024-02-21T04:02:38;2.70;;;2.07;;
8488;SDS011;4281;45.772;12.852;2024-02-21T04:05:06;2.37;;;2.17;;
8488;SDS011;4281;45.772;12.852;2024-02-21T04:07:39;2.17;;;1.97;;
8488;SDS011;4281;45.772;12.852;2024-02-21T04:10:07;2.47;;;2.27;;
8488;SDS011;4281;45.772;12.852;2024-02-21T04:12:42;2.37;;;2.10;;
8488;SDS011;4281;45.772;12.852;2024-02-21T04:15:09;2.63;;;2.43;;
8488;SDS011;4281;45.772;12.852;2024-02-21T04:17:37;4.23;;;2.40;;
8488;SDS011;4281;45.772;12.852;2024-02-21T04:20:05;2.80;;;2.00;;
8488;SDS011;4281;45.772;12.852;2024-02-21T04:22:35;2.83;;;2.27;;
8488;SDS011;4281;45.772;12.852;2024-02-21T04:25:05;2.30;;;2.07;;
8488;SDS011;4281;45.772;12.852;2024-02-21T04:27:33;2.87;;;2.10;;
8488;SDS011;4281;45.772;12.852;2024-02-21T04:30:01;2.07;;;1.87;;
8488;SDS011;4281;45.772;12.852;2024-02-21T04:32:29;2.20;;;2.00;;
8488;SDS011;4281;45.772;12.852;2024-02-21T04:34:57;2.03;;;1.60;;
8488;SDS011;4281;45.772;12.852;2024-02-21T04:37:25;2.90;;;1.83;;
8488;SDS011;4281;45.772;12.852;2024-02-21T04:39:53;2.03;;;1.63;;
8488;SDS011;4281;45.772;12.852;2024-02-21T04:42:22;2.37;;;1.93;;
8488;SDS011;4281;45.772;12.852;2024-02-21T04:44:50;2.50;;;1.90;;
8488;SDS011;4281;45.772;12.852;2024-02-21T04:47:18;1.73;;;1.63;;
8488;SDS011;4281;45.772;12.852;2024-02-21T04:49:46;2.07;;;1.60;;
8488;SDS011;4281;45.772;12.852;2024-02-21T04:52:14;1.70;;;1.50;;
8488;SDS011;4281;45.772;12.852;2024-02-21T04:54:42;1.60;;;1.50;;
8488;SDS011;4281;45.772;12.852;2024-02-21T04:57:10;1.53;;;1.43;;
8488;SDS011;4281;45.772;12.852;2024-02-21T04:59:44;2.00;;;1.70;;
8488;SDS011;4281;45.772;12.852;2024-02-21T05:02:13;2.03;;;1.20;;
8488;SDS011;4281;45.772;12.852;2024-02-21T05:04:42;2.30;;;1.40;;
8488;SDS011;4281;45.772;12.852;2024-02-21T05:07:10;1.70;;;1.30;;
8488;SDS011;4281;45.772;12.852;2024-02-21T05:09:38;1.77;;;1.60;;
8488;SDS011;4281;45.772;12.852;2024-02-21T05:12:06;1.60;;;1.30;;
8488;SDS011;4281;45.772;12.852;2024-02-21T05:14:35;1.40;;;1.20;;
8488;SDS011;4281;45.772;12.852;2024-02-21T05:17:05;1.57;;;1.27;;
8488;SDS011;4281;45.772;12.852;2024-02-21T05:19:33;1.87;;;1.23;;
8488;SDS011;4281;45.772;12.852;2024-02-21T05:22:01;1.30;;;1.20;;
8488;SDS011;4281;45.772;12.852;2024-02-21T05:24:29;1.77;;;1.30;;
8488;SDS011;4281;45.772;12.852;2024-02-21T05:26:57;1.20;;;1.03;;
8488;SDS011;4281;45.772;12.852;2024-02-21T05:29:25;1.33;;;1.23;;
8488;SDS011;4281;45.772;12.852;2024-02-21T05:31:56;1.83;;;1.10;;
8488;SDS011;4281;45.772;12.852;2024-02-21T05:34:26;1.43;;;1.30;;
8488;SDS011;4281;45.772;12.852;2024-02-21T05:36:54;1.43;;;1.30;;
8488;SDS011;4281;45.772;12.852;2024-02-21T05:39:24;1.50;;;1.40;;
8488;SDS011;4281;45.772;12.852;2024-02-21T05:41:52;1.43;;;1.30;;
8488;SDS011;4281;45.772;12.852;2024-02-21T05:44:19;2.20;;;1.40;;
8488;SDS011;4281;45.772;12.852;2024-02-21T05:46:48;2.13;;;1.60;;
8488;SDS011;4281;45.772;12.852;2024-02-21T05:49:16;2.13;;;1.73;;
8488;SDS011;4281;45.772;12.852;2024-02-21T05:51:46;1.93;;;1.70;;
8488;SDS011;4281;45.772;12.852;2024-02-21T05:54:14;1.57;;;1.47;;
8488;SDS011;4281;45.772;12.852;2024-02-21T05:56:44;1.87;;;1.70;;
8488;SDS011;4281;45.772;12.852;2024-02-21T05:59:12;3.60;;;1.63;;
8488;SDS011;4281;45.772;12.852;2024-02-21T06:01:40;1.83;;;1.50;;
8488;SDS011;4281;45.772;12.852;2024-02-21T06:04:08;1.97;;;1.57;;
8488;SDS011;4281;45.772;12.852;2024-02-21T06:06:36;1.60;;;1.50;;
8488;SDS011;4281;45.772;12.852;2024-02-21T06:09:05;2.20;;;1.60;;
8488;SDS011;4281;45.772;12.852;2024-02-21T06:11:33;1.83;;;1.57;;
8488;SDS011;4281;45.772;12.852;2024-02-21T06:14:04;2.10;;;1.40;;
8488;SDS011;4281;45.772;12.852;2024-02-21T06:16:32;2.60;;;1.60;;
8488;SDS011;4281;45.772;12.852;2024-02-21T06:19:00;1.70;;;1.43;;
8488;SDS011;4281;45.772;12.852;2024-02-21T06:21:29;2.93;;;1.67;;
8488;SDS011;4281;45.772;12.852;2024-02-21T06:23:57;1.80;;;1.37;;
8488;SDS011;4281;45.772;12.852;2024-02-21T06:26:26;1.70;;;1.43;;
8488;SDS011;4281;45.772;12.852;2024-02-21T06:28:54;1.77;;;1.50;;
8488;SDS011;4281;45.772;12.852;2024-02-21T06:31:22;1.60;;;1.40;;
8488;SDS011;4281;45.772;12.852;2024-02-21T06:33:50;3.70;;;1.43;;
8488;SDS011;4281;45.772;12.852;2024-02-21T06:36:18;2.20;;;1.50;;
8488;SDS011;4281;45.772;12.852;2024-02-21T06:38:46;1.53;;;1.30;;
8488;SDS011;4281;45.772;12.852;2024-02-21T06:41:14;2.70;;;1.63;;
8488;SDS011;4281;45.772;12.852;2024-02-21T06:43:44;2.70;;;1.90;;
8488;SDS011;4281;45.772;12.852;2024-02-21T06:46:21;3.63;;;1.70;;
8488;SDS011;4281;45.772;12.852;2024-02-21T06:48:50;2.10;;;1.90;;
8488;SDS011;4281;45.772;12.852;2024-02-21T06:51:20;2.40;;;1.50;;
8488;SDS011;4281;45.772;12.852;2024-02-21T06:53:47;1.63;;;1.53;;
8488;SDS011;4281;45.772;12.852;2024-02-21T06:56:15;1.90;;;1.57;;
8488;SDS011;4281;45.772;12.852;2024-02-21T06:58:45;1.47;;;1.33;;
8488;SDS011;4281;45.772;12.852;2024-02-21T07:01:12;1.50;;;1.40;;
8488;SDS011;4281;45.772;12.852;2024-02-21T07:03:40;1.53;;;1.43;;
8488;SDS011;4281;45.772;12.852;2024-02-21T07:06:08;1.70;;;1.60;;
8488;SDS011;4281;45.772;12.852;2024-02-21T07:08:36;1.67;;;1.40;;
8488;SDS011;4281;45.772;12.852;2024-02-21T07:11:05;2.50;;;1.63;;
8488;SDS011;4281;45.772;12.852;2024-02-21T07:13:33;2.60;;;1.40;;
8488;SDS011;4281;45.772;12.852;2024-02-21T07:16:02;1.73;;;1.50;;
8488;SDS011;4281;45.772;12.852;2024-02-21T07:18:30;2.27;;;1.27;;
8488;SDS011;4281;45.772;12.852;2024-02-21T07:20:58;1.97;;;1.43;;
8488;SDS011;4281;45.772;12.852;2024-02-21T07:23:26;2.27;;;1.70;;
8488;SDS011;4281;45.772;12.852;2024-02-21T07:25:54;2.03;;;1.83;;
8488;SDS011;4281;45.772;12.852;2024-02-21T07:28:22;3.37;;;2.70;;
8488;SDS011;4281;45.772;12.852;2024-02-21T07:30:50;2.80;;;2.40;;
8488;SDS011;4281;45.772;12.852;2024-02-21T07:33:19;3.70;;;2.77;;
8488;SDS011;4281;45.772;12.852;2024-02-21T07:35:47;4.30;;;2.63;;
8488;SDS011;4281;45.772;12.852;2024-02-21T07:38:15;3.00;;;2.33;;
8488;SDS011;4281;45.772;12.852;2024-02-21T07:40:44;3.57;;;2.40;;
8488;SDS011;4281;45.772;12.852;2024-02-21T07:43:12;3.13;;;2.50;;
8488;SDS011;4281;45.772;12.852;2024-02-21T07:45:40;2.83;;;2.17;;
8488;SDS011;4281;45.772;12.852;2024-02-21T07:48:08;3.70;;;2.30;;
8488;SDS011;4281;45.772;12.852;2024-02-21T07:50:38;2.97;;;2.60;;
8488;SDS011;4281;45.772;12.852;2024-02-21T07:53:06;3.70;;;2.30;;
8488;SDS011;4281;45.772;12.852;2024-02-21T07:55:34;3.00;;;2.40;;
8488;SDS011;4281;45.772;12.852;2024-02-21T07:58:02;2.47;;;2.03;;
8488;SDS011;4281;45.772;12.852;2024-02-21T08:00:30;2.50;;;1.90;;
8488;SDS011;4281;45.772;12.852;2024-02-21T08:02:58;1.77;;;1.60;;
8488;SDS011;4281;45.772;12.852;2024-02-21T08:05:26;2.13;;;1.90;;
8488;SDS011;4281;45.772;12.852;2024-02-21T08:07:57;2.27;;;1.60;;
8488;SDS011;4281;45.772;12.852;2024-02-21T08:10:25;3.00;;;2.20;;
8488;SDS011;4281;45.772;12.852;2024-02-21T08:12:53;2.33;;;1.90;;
8488;SDS011;4281;45.772;12.852;2024-02-21T08:15:21;2.90;;;1.97;;
8488;SDS011;4281;45.772;12.852;2024-02-21T08:17:54;3.37;;;1.70;;
8488;SDS011;4281;45.772;12.852;2024-02-21T08:20:26;2.10;;;1.90;;
8488;SDS011;4281;45.772;12.852;2024-02-21T08:22:54;2.57;;;1.90;;
8488;SDS011;4281;45.772;12.852;2024-02-21T08:25:23;2.60;;;1.63;;
8488;SDS011;4281;45.772;12.852;2024-02-21T08:27:53;1.93;;;1.77;;
8488;SDS011;4281;45.772;12.852;2024-02-21T08:30:22;1.83;;;1.60;;
8488;SDS011;4281;45.772;12.852;2024-02-21T08:32:49;2.43;;;1.90;;
8488;SDS011;4281;45.772;12.852;2024-02-21T08:35:17;1.90;;;1.70;;
8488;SDS011;4281;45.772;12.852;2024-02-21T08:37:46;1.90;;;1.50;;
8488;SDS011;4281;45.772;12.852;2024-02-21T08:40:14;2.70;;;1.67;;
8488;SDS011;4281;45.772;12.852;2024-02-21T08:42:45;1.90;;;1.70;;
8488;SDS011;4281;45.772;12.852;2024-02-21T08:45:13;2.00;;;1.80;;
8488;SDS011;4281;45.772;12.852;2024-02-21T08:47:41;2.13;;;1.50;;
8488;SDS011;4281;45.772;12.852;2024-02-21T08:50:09;1.90;;;1.60;;
8488;SDS011;4281;45.772;12.852;2024-02-21T08:52:52;2.70;;;2.03;;
8488;SDS011;4281;45.772;12.852;2024-02-21T08:55:20;2.10;;;1.90;;
8488;SDS011;4281;45.772;12.852;2024-02-21T08:57:50;2.17;;;1.70;;
8488;SDS011;4281;45.772;12.852;2024-02-21T09:00:18;2.50;;;2.10;;
8488;SDS011;4281;45.772;12.852;2024-02-21T09:02:50;1.97;;;1.77;;
8488;SDS011;4281;45.772;12.852;2024-02-21T09:05:18;1.43;;;1.33;;
8488;SDS011;4281;45.772;12.852;2024-02-21T09:07:46;2.57;;;1.80;;
8488;SDS011;4281;45.772;12.852;2024-02-21T09:10:14;2.10;;;1.90;;
8488;SDS011;4281;45.772;12.852;2024-02-21T09:12:43;2.20;;;1.70;;
8488;SDS011;4281;45.772;12.852;2024-02-21T09:15:12;2.13;;;1.70;;
8488;SDS011;4281;45.772;12.852;2024-02-21T09:17:40;2.10;;;1.90;;
8488;SDS011;4281;45.772;12.852;2024-02-21T09:20:07;2.73;;;1.90;;
8488;SDS011;4281;45.772;12.852;2024-02-21T09:22:38;3.90;;;2.13;;
8488;SDS011;4281;45.772;12.852;2024-02-21T09:25:07;3.30;;;1.80;;
8488;SDS011;4281;45.772;12.852;2024-02-21T09:27:38;3.47;;;2.10;;
8488;SDS011;4281;45.772;12.852;2024-02-21T09:30:06;1.83;;;1.60;;
8488;SDS011;4281;45.772;12.852;2024-02-21T09:32:36;2.33;;;1.87;;
8488;SDS011;4281;45.772;12.852;2024-02-21T09:35:04;2.60;;;1.90;;
8488;SDS011;4281;45.772;12.852;2024-02-21T09:37:32;2.27;;;2.07;;
8488;SDS011;4281;45.772;12.852;2024-02-21T09:40:00;1.97;;;1.70;;
8488;SDS011;4281;45.772;12.852;2024-02-21T09:42:31;1.93;;;1.73;;
8488;SDS011;4281;45.772;12.852;2024-02-21T09:45:05;4.03;;;1.90;;
8488;SDS011;4281;45.772;12.852;2024-02-21T09:47:39;2.63;;;1.90;;
8488;SDS011;4281;45.772;12.852;2024-02-21T09:50:24;1.77;;;1.50;;
8488;SDS011;4281;45.772;12.852;2024-02-21T09:52:54;2.07;;;1.83;;
8488;SDS011;4281;45.772;12.852;2024-02-21T09:55:22;2.63;;;1.90;;
8488;SDS011;4281;45.772;12.852;2024-02-21T09:57:51;3.07;;;2.10;;
8488;SDS011;4281;45.772;12.852;2024-02-21T10:00:20;2.30;;;2.03;;
8488;SDS011;4281;45.772;12.852;2024-02-21T10:02:50;2.53;;;2.10;;
8488;SDS011;4281;45.772;12.852;2024-02-21T10:05:18;3.50;;;2.00;;
8488;SDS011;4281;45.772;12.852;2024-02-21T10:07:46;2.70;;;2.03;;
8488;SDS011;4281;45.772;12.852;2024-02-21T10:10:14;2.33;;;1.90;;
8488;SDS011;4281;45.772;12.852;2024-02-21T10:12:49;1.90;;;1.70;;
8488;SDS011;4281;45.772;12.852;2024-02-21T10:15:19;2.20;;;2.00;;
8488;SDS011;4281;45.772;12.852;2024-02-21T10:17:47;2.10;;;1.83;;
8488;SDS011;4281;45.772;12.852;2024-02-21T10:20:17;1.90;;;1.70;;
8488;SDS011;4281;45.772;12.852;2024-02-21T10:22:45;2.40;;;2.10;;
8488;SDS011;4281;45.772;12.852;2024-02-21T10:25:13;2.53;;;2.17;;
8488;SDS011;4281;45.772;12.852;2024-02-21T10:27:41;2.40;;;2.00;;
8488;SDS011;4281;45.772;12.852;2024-02-21T10:30:12;2.20;;;1.97;;
8488;SDS011;4281;45.772;12.852;2024-02-21T10:32:48;2.10;;;1.87;;
8488;SDS011;4281;45.772;12.852;2024-02-21T10:35:26;2.40;;;2.10;;
8488;SDS011;4281;45.772;12.852;2024-02-21T10:37:56;2.20;;;2.00;;
8488;SDS011;4281;45.772;12.852;2024-02-21T10:40:24;2.30;;;2.07;;
8488;SDS011;4281;45.772;12.852;2024-02-21T10:42:56;2.13;;;1.93;;
8488;SDS011;4281;45.772;12.852;2024-02-21T10:45:29;2.67;;;2.00;;
8488;SDS011;4281;45.772;12.852;2024-02-21T10:48:01;2.93;;;2.17;;
8488;SDS011;4281;45.772;12.852;2024-02-21T10:50:42;2.13;;;1.93;;
8488;SDS011;4281;45.772;12.852;2024-02-21T10:53:22;3.07;;;2.20;;
8488;SDS011;4281;45.772;12.852;2024-02-21T10:55:58;2.93;;;2.40;;
8488;SDS011;4281;45.772;12.852;2024-02-21T10:58:27;2.40;;;2.17;;
8488;SDS011;4281;45.772;12.852;2024-02-21T11:00:57;2.03;;;1.80;;
8488;SDS011;4281;45.772;12.852;2024-02-21T11:03:25;3.67;;;2.30;;
8488;SDS011;4281;45.772;12.852;2024-02-21T11:05:54;3.07;;;2.40;;
8488;SDS011;4281;45.772;12.852;2024-02-21T11:08:22;3.70;;;2.33;;
8488;SDS011;4281;45.772;12.852;2024-02-21T11:10:56;2.63;;;2.40;;
8488;SDS011;4281;45.772;12.852;2024-02-21T11:13:29;3.37;;;2.40;;
8488;SDS011;4281;45.772;12.852;2024-02-21T11:16:06;3.60;;;2.50;;
8488;SDS011;4281;45.772;12.852;2024-02-21T11:18:35;2.70;;;2.50;;
8488;SDS011;4281;45.772;12.852;2024-02-21T11:21:05;2.90;;;2.50;;
8488;SDS011;4281;45.772;12.852;2024-02-21T11:23:33;3.30;;;2.50;;
8488;SDS011;4281;45.772;12.852;2024-02-21T11:26:04;3.33;;;2.53;;
8488;SDS011;4281;45.772;12.852;2024-02-21T11:28:33;2.87;;;2.67;;
8488;SDS011;4281;45.772;12.852;2024-02-21T11:31:09;2.43;;;2.23;;
8488;SDS011;4281;45.772;12.852;2024-02-21T11:33:40;2.80;;;2.60;;
8488;SDS011;4281;45.772;12.852;2024-02-21T11:36:10;2.20;;;2.00;;
8488;SDS011;4281;45.772;12.852;2024-02-21T11:38:38;3.20;;;2.50;;
8488;SDS011;4281;45.772;12.852;2024-02-21T11:41:07;3.07;;;2.77;;
8488;SDS011;4281;45.772;12.852;2024-02-21T11:43:38;2.90;;;2.67;;
8488;SDS011;4281;45.772;12.852;2024-02-21T11:46:08;2.80;;;2.60;;
8488;SDS011;4281;45.772;12.852;2024-02-21T11:48:36;3.07;;;2.80;;
8488;SDS011;4281;45.772;12.852;2024-02-21T11:51:04;2.57;;;2.37;;
8488;SDS011;4281;45.772;12.852;2024-02-21T11:53:34;3.10;;;2.80;;
8488;SDS011;4281;45.772;12.852;2024-02-21T11:56:13;3.17;;;2.87;;
8488;SDS011;4281;45.772;12.852;2024-02-21T11:58:41;3.20;;;2.93;;
8488;SDS011;4281;45.772;12.852;2024-02-21T12:01:09;3.53;;;2.80;;
8488;SDS011;4281;45.772;12.852;2024-02-21T12:03:37;2.90;;;2.70;;
8488;SDS011;4281;45.772;12.852;2024-02-21T12:06:07;2.60;;;2.40;;
8488;SDS011;4281;45.772;12.852;2024-02-21T12:08:43;2.20;;;2.00;;
8488;SDS011;4281;45.772;12.852;2024-02-21T12:11:18;2.60;;;2.40;;
8488;SDS011;4281;45.772;12.852;2024-02-21T12:13:47;2.60;;;2.40;;
8488;SDS011;4281;45.772;12.852;2024-02-21T12:16:15;2.50;;;2.30;;
8488;SDS011;4281;45.772;12.852;2024-02-21T12:18:44;3.03;;;2.73;;
8488;SDS011;4281;45.772;12.852;2024-02-21T12:21:13;3.43;;;2.67;;
8488;SDS011;4281;45.772;12.852;2024-02-21T12:23:40;3.00;;;2.70;;
8488;SDS011;4281;45.772;12.852;2024-02-21T12:26:10;2.80;;;2.60;;
8488;SDS011;4281;45.772;12.852;2024-02-21T12:28:38;3.90;;;2.60;;
8488;SDS011;4281;45.772;12.852;2024-02-21T12:31:06;2.73;;;2.53;;
8488;SDS011;4281;45.772;12.852;2024-02-21T12:33:33;3.27;;;2.97;;
8488;SDS011;4281;45.772;12.852;2024-02-21T12:36:02;3.17;;;2.77;;
8488;SDS011;4281;45.772;12.852;2024-02-21T12:38:30;2.80;;;2.47;;
8488;SDS011;4281;45.772;12.852;2024-02-21T12:40:59;2.80;;;2.60;;
8488;SDS011;4281;45.772;12.852;2024-02-21T12:43:28;2.90;;;2.70;;
8488;SDS011;4281;45.772;12.852;2024-02-21T12:45:56;2.80;;;2.60;;
8488;SDS011;4281;45.772;12.852;2024-02-21T12:48:23;2.83;;;2.57;;
8488;SDS011;4281;45.772;12.852;2024-02-21T12:50:51;2.70;;;2.50;;
8488;SDS011;4281;45.772;12.852;2024-02-21T12:53:20;2.80;;;2.60;;
8488;SDS011;4281;45.772;12.852;2024-02-21T12:55:59;3.37;;;2.50;;
8488;SDS011;4281;45.772;12.852;2024-02-21T12:58:27;2.80;;;2.60;;
8488;SDS011;4281;45.772;12.852;2024-02-21T13:00:58;3.40;;;2.87;;
8488;SDS011;4281;45.772;12.852;2024-02-21T13:03:26;3.10;;;2.80;;
8488;SDS011;4281;45.772;12.852;2024-02-21T13:05:58;3.17;;;2.80;;
8488;SDS011;4281;45.772;12.852;2024-02-21T13:08:26;3.50;;;2.40;;
8488;SDS011;4281;45.772;12.852;2024-02-21T13:10:54;3.07;;;2.83;;
8488;SDS011;4281;45.772;12.852;2024-02-21T13:13:24;3.00;;;2.70;;
8488;SDS011;4281;45.772;12.852;2024-02-21T13:15:51;2.80;;;2.60;;
8488;SDS011;4281;45.772;12.852;2024-02-21T13:18:19;2.93;;;2.73;;
8488;SDS011;4281;45.772;12.852;2024-02-21T13:20:47;2.80;;;2.60;;
8488;SDS011;4281;45.772;12.852;2024-02-21T13:23:15;3.10;;;2.80;;
8488;SDS011;4281;45.772;12.852;2024-02-21T13:25:43;2.83;;;2.63;;
8488;SDS011;4281;45.772;12.852;2024-02-21T13:28:12;3.13;;;2.87;;
8488;SDS011;4281;45.772;12.852;2024-02-21T13:30:43;3.13;;;2.83;;
8488;SDS011;4281;45.772;12.852;2024-02-21T13:33:10;3.10;;;2.77;;
8488;SDS011;4281;45.772;12.852;2024-02-21T13:35:38;2.93;;;2.63;;
8488;SDS011;4281;45.772;12.852;2024-02-21T13:38:07;3.63;;;3.30;;
8488;SDS011;4281;45.772;12.852;2024-02-21T13:40:36;3.20;;;2.90;;
8488;SDS011;4281;45.772;12.852;2024-02-21T13:43:04;3.23;;;3.03;;
8488;SDS011;4281;45.772;12.852;2024-02-21T13:45:36;3.20;;;2.90;;
8488;SDS011;4281;45.772;12.852;2024-02-21T13:48:05;3.60;;;3.30;;
8488;SDS011;4281;45.772;12.852;2024-02-21T13:50:37;4.03;;;3.33;;
8488;SDS011;4281;45.772;12.852;2024-02-21T13:53:09;3.80;;;3.47;;
8488;SDS011;4281;45.772;12.852;2024-02-21T13:55:37;3.90;;;3.60;;
8488;SDS011;4281;45.772;12.852;2024-02-21T13:58:07;4.10;;;3.80;;
8488;SDS011;4281;45.772;12.852;2024-02-21T14:00:35;4.13;;;3.73;;
8488;SDS011;4281;45.772;12.852;2024-02-21T14:03:03;3.73;;;3.40;;
8488;SDS011;4281;45.772;12.852;2024-02-21T14:05:33;3.57;;;3.27;;
8488;SDS011;4281;45.772;12.852;2024-02-21T14:08:00;3.80;;;3.50;;
8488;SDS011;4281;45.772;12.852;2024-02-21T14:10:28;3.90;;;3.50;;
8488;SDS011;4281;45.772;12.852;2024-02-21T14:12:57;3.90;;;3.50;;
8488;SDS011;4281;45.772;12.852;2024-02-21T14:15:43;3.60;;;3.30;;
8488;SDS011;4281;45.772;12.852;2024-02-21T14:18:12;4.23;;;3.83;;
8488;SDS011;4281;45.772;12.852;2024-02-21T14:20:44;3.90;;;3.60;;
8488;SDS011;4281;45.772;12.852;2024-02-21T14:23:13;4.47;;;3.97;;
8488;SDS011;4281;45.772;12.852;2024-02-21T14:25:41;4.20;;;3.80;;
8488;SDS011;4281;45.772;12.852;2024-02-21T14:28:09;4.27;;;3.87;;
8488;SDS011;4281;45.772;12.852;2024-02-21T14:30:37;4.53;;;4.13;;
8488;SDS011;4281;45.772;12.852;2024-02-21T14:33:04;4.83;;;4.43;;
8488;SDS011;4281;45.772;12.852;2024-02-21T14:35:34;4.80;;;4.40;;
8488;SDS011;4281;45.772;12.852;2024-02-21T14:38:03;4.67;;;4.27;;
8488;SDS011;4281;45.772;12.852;2024-02-21T14:40:32;4.70;;;4.30;;
8488;SDS011;4281;45.772;12.852;2024-02-21T14:43:00;5.90;;;5.30;;
8488;SDS011;4281;45.772;12.852;2024-02-21T14:45:28;4.90;;;4.50;;
8488;SDS011;4281;45.772;12.852;2024-02-21T14:47:56;5.50;;;5.00;;
8488;SDS011;4281;45.772;12.852;2024-02-21T14:50:24;7.50;;;6.40;;
8488;SDS011;4281;45.772;12.852;2024-02-21T14:52:52;7.70;;;6.90;;
8488;SDS011;4281;45.772;12.852;2024-02-21T14:55:21;7.27;;;6.50;;
8488;SDS011;4281;45.772;12.852;2024-02-21T14:57:49;7.60;;;6.80;;
8488;SDS011;4281;45.772;12.852;2024-02-21T15:00:17;7.07;;;6.47;;
8488;SDS011;4281;45.772;12.852;2024-02-21T15:02:47;7.80;;;7.00;;
8488;SDS011;4281;45.772;12.852;2024-02-21T15:05:15;7.57;;;6.50;;
8488;SDS011;4281;45.772;12.852;2024-02-21T15:07:43;6.87;;;6.17;;
8488;SDS011;4281;45.772;12.852;2024-02-21T15:10:10;6.37;;;5.77;;